Terminal Aerodrome Forecast
Issued by NWS

Home | Current Version | Previous Version | Text Only | Print | Product List | Glossary On
Versions: 1 2 3 4 5 6 7 8 9 10 11 12 13 14 15 16 17 18 19 20 21 22 23 24 25 26 27 28 29 30 31 32 33 34 35 36
000
FTAK31 PANC 241515 AAB
TAFADU
TAF AMD
PADU 241515Z 2415/2512 28011KT P6SM -SHSNRA SCT025 OVC035
      TEMPO 2415/2418 5SM -SNRA BKN025 OVC035
     FM242300 22004KT P6SM BKN035
     FM250300 17010G15KT P6SM -RA SCT015 OVC035
     FM250700 16010G15KT 6SM -RA BR BKN015 OVC030=

USA.gov is the U.S. government's official web portal to all federal, state and local government web resources and services.